createdAt,value
2018-07-07T00:00:27.032Z,10.30
2018-07-07T00:02:56.335Z,10.77
2018-07-07T00:05:25.888Z,11.27
2018-07-07T00:07:55.565Z,11.27
2018-07-07T00:10:24.876Z,10.40
2018-07-07T00:12:54.140Z,13.30
2018-07-07T00:15:23.469Z,11.47
2018-07-07T00:17:53.075Z,12.00
2018-07-07T00:20:22.080Z,11.47
2018-07-07T00:22:51.369Z,11.03
2018-07-07T00:25:21.747Z,9.83
2018-07-07T00:27:51.491Z,11.50
2018-07-07T00:30:20.811Z,10.60
2018-07-07T00:32:49.784Z,9.83
2018-07-07T00:35:19.714Z,10.93
2018-07-07T00:37:48.992Z,9.60
2018-07-07T00:40:18.622Z,10.80
2018-07-07T00:42:47.902Z,11.13
2018-07-07T00:45:16.928Z,11.97
2018-07-07T00:47:46.831Z,10.83
2018-07-07T00:50:16.440Z,10.67
2018-07-07T00:52:45.755Z,10.27
2018-07-07T00:55:15.017Z,10.83
2018-07-07T00:57:44.377Z,10.57
2018-07-07T01:00:13.617Z,11.40
2018-07-07T01:02:43.091Z,11.80
2018-07-07T01:05:17.771Z,11.63
2018-07-07T01:07:47.080Z,11.95
2018-07-07T01:10:16.917Z,11.07
2018-07-07T01:12:46.902Z,12.30
2018-07-07T01:15:15.897Z,11.27
2018-07-07T01:17:45.502Z,10.77
2018-07-07T01:20:14.788Z,12.57
2018-07-07T01:22:43.764Z,12.00
2018-07-07T01:25:12.795Z,12.97
2018-07-07T01:27:42.703Z,11.97
2018-07-07T01:30:12.036Z,12.17
2018-07-07T01:32:41.283Z,11.20
2018-07-07T01:35:10.846Z,12.17
2018-07-07T01:37:40.206Z,11.33
2018-07-07T01:40:09.520Z,10.67
2018-07-07T01:42:39.448Z,11.10
2018-07-07T01:45:08.435Z,10.97
2018-07-07T01:47:37.419Z,10.57
2018-07-07T01:50:07.232Z,10.67
2018-07-07T01:52:36.608Z,10.30
2018-07-07T01:55:05.996Z,10.50
2018-07-07T01:57:35.232Z,11.80
2018-07-07T02:00:05.152Z,10.20
2018-07-07T02:02:34.448Z,10.87
2018-07-07T02:05:03.770Z,10.60
2018-07-07T02:07:32.699Z,9.67
2018-07-07T02:10:02.024Z,10.27
2018-07-07T02:12:31.341Z,10.57
2018-07-07T02:15:00.650Z,10.27
2018-07-07T02:17:30.399Z,10.40
2018-07-07T02:20:00.474Z,9.97
2018-07-07T02:22:29.773Z,9.60
2018-07-07T02:24:59.381Z,9.23
2018-07-07T02:27:28.655Z,9.23
2018-07-07T02:29:57.664Z,9.40
2018-07-07T02:32:26.644Z,10.10
2018-07-07T02:34:56.587Z,10.07
2018-07-07T02:37:25.879Z,10.57
2018-07-07T02:39:55.192Z,11.13
2018-07-07T02:42:25.099Z,10.70
2018-07-07T02:44:55.015Z,9.97
2018-07-07T02:47:24.303Z,10.30
2018-07-07T02:49:54.234Z,9.00
2018-07-07T02:52:23.544Z,10.80
2018-07-07T02:54:52.808Z,10.87
2018-07-07T02:57:22.148Z,10.67
2018-07-07T02:59:51.388Z,10.60
2018-07-07T03:02:20.400Z,10.07
2018-07-07T03:04:50.032Z,10.10
2018-07-07T03:07:19.305Z,9.30
2018-07-07T03:09:48.311Z,10.73
2018-07-07T03:12:17.620Z,9.90
2018-07-07T03:14:46.608Z,10.45
2018-07-07T03:17:15.592Z,10.67
2018-07-07T03:19:45.220Z,9.47
2018-07-07T03:22:14.180Z,10.97
2018-07-07T03:24:43.224Z,10.17
2018-07-07T03:27:12.817Z,9.73
2018-07-07T03:29:42.095Z,10.90
2018-07-07T03:32:11.388Z,9.63
2018-07-07T03:34:41.329Z,11.10
2018-07-07T03:37:10.616Z,9.60
2018-07-07T03:39:39.904Z,11.08
2018-07-07T03:42:09.244Z,11.13
2018-07-07T03:44:38.532Z,10.73
2018-07-07T03:47:07.832Z,10.07
2018-07-07T03:49:36.788Z,10.43
2018-07-07T03:52:05.833Z,10.97
2018-07-07T03:54:35.088Z,13.77
2018-07-07T03:57:05.444Z,12.43
2018-07-07T03:59:34.482Z,10.70
2018-07-07T04:02:07.322Z,11.63
2018-07-07T04:04:36.864Z,11.47
2018-07-07T04:07:06.442Z,11.13
2018-07-07T04:09:35.576Z,10.57
2018-07-07T04:12:04.952Z,10.07
2018-07-07T04:14:34.441Z,11.27
2018-07-07T04:17:03.768Z,11.60
2018-07-07T04:19:33.018Z,11.33
2018-07-07T04:22:02.021Z,10.23
2018-07-07T04:24:31.351Z,10.07
2018-07-07T04:27:00.613Z,9.53
2018-07-07T04:29:29.935Z,11.00
2018-07-07T04:31:59.841Z,9.90
2018-07-07T04:34:29.210Z,10.73
2018-07-07T04:36:58.757Z,9.23
2018-07-07T04:39:27.896Z,9.73
2018-07-07T04:41:57.436Z,11.20
2018-07-07T04:44:26.970Z,9.97
2018-07-07T04:46:56.753Z,9.57
2018-07-07T04:49:26.204Z,10.03
2018-07-07T04:51:55.794Z,10.47
2018-07-07T04:54:24.792Z,10.57
2018-07-07T04:56:54.440Z,11.00
2018-07-07T04:59:23.999Z,9.80
2018-07-07T05:01:53.760Z,10.00
2018-07-07T05:04:23.577Z,9.80
2018-07-07T05:06:53.128Z,10.63
2018-07-07T05:09:22.463Z,10.10
2018-07-07T05:11:51.729Z,9.20
2018-07-07T05:14:21.029Z,9.77
2018-07-07T05:16:50.947Z,9.73
2018-07-07T05:19:21.346Z,8.63
2018-07-07T05:21:50.444Z,8.50
2018-07-07T05:24:19.492Z,8.27
2018-07-07T05:26:48.516Z,9.90
2018-07-07T05:29:18.368Z,8.67
2018-07-07T05:31:47.680Z,8.93
2018-07-07T05:34:16.635Z,8.07
2018-07-07T05:36:46.373Z,10.00
2018-07-07T05:39:16.373Z,9.90
2018-07-07T05:41:46.135Z,10.23
2018-07-07T05:44:15.424Z,9.40
2018-07-07T05:46:44.695Z,8.93
2018-07-07T05:49:14.031Z,8.15
2018-07-07T05:51:43.836Z,9.23
2018-07-07T05:54:13.584Z,8.13
2018-07-07T05:56:43.131Z,8.83
2018-07-07T05:59:12.435Z,8.68
2018-07-07T06:01:41.408Z,8.90
2018-07-07T06:04:10.479Z,7.92
2018-07-07T06:06:39.880Z,8.30
2018-07-07T06:09:09.411Z,8.00
2018-07-07T06:11:38.596Z,7.92
2018-07-07T06:14:07.992Z,6.80
2018-07-07T06:16:37.718Z,7.60
2018-07-07T06:19:07.115Z,9.53
2018-07-07T06:21:36.779Z,8.48
2018-07-07T06:24:05.717Z,8.68
2018-07-07T06:26:35.707Z,8.30
2018-07-07T06:29:04.666Z,8.08
2018-07-07T06:31:34.264Z,8.70
2018-07-07T06:34:03.511Z,7.97
2018-07-07T06:36:32.974Z,8.20
2018-07-07T06:39:02.176Z,8.05
2018-07-07T06:41:31.771Z,7.65
2018-07-07T06:44:01.378Z,7.87
2018-07-07T06:46:30.986Z,7.65
2018-07-07T06:49:00.081Z,8.43
2018-07-07T06:51:29.369Z,8.90
2018-07-07T06:53:58.675Z,9.63
2018-07-07T06:56:28.189Z,8.90
2018-07-07T06:58:57.504Z,8.20
2018-07-07T07:01:27.094Z,8.35
2018-07-07T07:03:56.703Z,8.75
2018-07-07T07:06:26.599Z,9.53
2018-07-07T07:08:55.960Z,8.68
2018-07-07T07:11:25.531Z,9.30
2018-07-07T07:13:54.499Z,9.28
2018-07-07T07:16:23.494Z,9.30
2018-07-07T07:18:52.849Z,8.98
2018-07-07T07:21:22.727Z,8.50
2018-07-07T07:23:52.500Z,9.23
2018-07-07T07:26:22.494Z,9.40
2018-07-07T07:28:57.258Z,8.83
2018-07-07T07:31:27.634Z,9.68
2018-07-07T07:33:57.937Z,9.08
2018-07-07T07:36:45.873Z,9.05
2018-07-07T07:39:15.524Z,9.63
2018-07-07T07:41:46.679Z,10.13
2018-07-07T07:44:16.471Z,10.80
2018-07-07T07:46:46.462Z,9.00
2018-07-07T07:49:15.991Z,8.48
2018-07-07T07:51:45.586Z,10.88
2018-07-07T07:54:15.428Z,9.43
2018-07-07T07:56:44.930Z,8.73
2018-07-07T07:59:17.052Z,8.63
2018-07-07T08:01:46.559Z,9.13
2018-07-07T08:04:15.477Z,8.65
2018-07-07T08:06:45.108Z,9.08
2018-07-07T08:09:14.997Z,9.75
2018-07-07T08:11:44.601Z,8.40
2018-07-07T08:14:15.937Z,8.25
2018-07-07T08:16:45.202Z,8.40
2018-07-07T08:19:14.696Z,8.28
2018-07-07T08:21:44.302Z,8.38
2018-07-07T08:24:15.456Z,8.83
2018-07-07T08:26:52.283Z,8.95
2018-07-07T08:29:30.198Z,8.65
2018-07-07T08:31:59.645Z,8.60
2018-07-07T08:34:29.291Z,7.75
2018-07-07T08:36:58.925Z,9.00
2018-07-07T08:39:28.421Z,8.33
2018-07-07T08:41:57.977Z,8.03
2018-07-07T08:44:28.342Z,7.78
2018-07-07T08:46:58.700Z,8.28
2018-07-07T08:49:28.754Z,7.62
2018-07-07T08:51:58.816Z,8.25
2018-07-07T08:54:28.733Z,8.50
2018-07-07T08:56:58.957Z,9.00
2018-07-07T08:59:28.541Z,8.78
2018-07-07T09:01:59.097Z,9.75
2018-07-07T09:04:28.673Z,8.80
2018-07-07T09:06:59.120Z,9.48
2018-07-07T09:09:29.123Z,8.45
2018-07-07T09:11:59.089Z,8.90
2018-07-07T09:14:29.638Z,9.08
2018-07-07T09:16:59.772Z,9.38
2018-07-07T09:19:30.242Z,8.98
2018-07-07T09:22:00.370Z,9.25
2018-07-07T09:24:29.505Z,8.85
2018-07-07T09:27:05.203Z,8.65
2018-07-07T09:29:37.635Z,9.43
2018-07-07T09:32:08.502Z,8.93
2018-07-07T09:34:39.148Z,8.85
2018-07-07T09:37:08.608Z,8.93
2018-07-07T09:39:38.250Z,9.15
2018-07-07T09:42:08.511Z,10.72
2018-07-07T09:44:38.418Z,9.08
2018-07-07T09:47:08.624Z,9.63
2018-07-07T09:49:39.532Z,9.60
2018-07-07T09:52:11.143Z,9.08
2018-07-07T09:54:43.315Z,9.33
2018-07-07T09:57:13.567Z,8.88
2018-07-07T09:59:43.773Z,9.18
2018-07-07T10:02:16.459Z,7.85
2018-07-07T10:04:46.813Z,8.70
2018-07-07T10:07:18.590Z,9.05
2018-07-07T10:09:48.601Z,9.25
2018-07-07T10:12:18.998Z,10.70
2018-07-07T10:17:17.605Z,10.80
2018-07-07T10:22:16.196Z,8.78
2018-07-07T10:24:47.493Z,10.45
2018-07-07T10:27:17.712Z,9.87
2018-07-07T10:29:48.009Z,8.70
2018-07-07T10:32:18.233Z,8.90
2018-07-07T10:34:47.781Z,8.25
2018-07-07T10:37:19.576Z,9.40
2018-07-07T10:39:50.157Z,10.10
2018-07-07T10:42:19.965Z,8.98
2018-07-07T10:51:56.046Z,10.78
2018-07-07T10:54:26.350Z,10.85
2018-07-07T10:56:56.489Z,10.40
2018-07-07T10:59:27.653Z,9.65
2018-07-07T11:01:57.192Z,9.48
2018-07-07T11:04:32.050Z,9.88
2018-07-07T11:07:03.077Z,9.98
2018-07-07T11:09:34.034Z,9.38
2018-07-07T11:12:04.013Z,10.65
2018-07-07T11:14:34.243Z,10.28
2018-07-07T11:17:04.340Z,10.55
2018-07-07T11:19:34.228Z,9.38
2018-07-07T11:22:04.964Z,10.65
2018-07-07T11:24:37.200Z,10.30
2018-07-07T11:27:08.400Z,9.40
2018-07-07T11:29:45.707Z,9.93
2018-07-07T11:32:16.630Z,9.78
2018-07-07T11:34:47.245Z,8.93
2018-07-07T11:37:18.272Z,8.63
2018-07-07T11:39:49.450Z,9.80
2018-07-07T11:42:19.198Z,9.13
2018-07-07T11:44:48.748Z,9.75
2018-07-07T11:47:20.403Z,8.35
2018-07-07T11:49:50.155Z,9.63
2018-07-07T11:52:19.703Z,10.10
2018-07-07T11:54:49.839Z,8.78
2018-07-07T11:57:22.579Z,8.70
2018-07-07T11:59:53.036Z,8.50
2018-07-07T12:02:24.945Z,9.25
2018-07-07T12:04:54.905Z,8.33
2018-07-07T12:07:33.537Z,8.73
2018-07-07T12:10:05.140Z,9.93
2018-07-07T12:12:35.906Z,8.30
2018-07-07T12:15:06.597Z,9.95
2018-07-07T12:17:36.973Z,8.58
2018-07-07T12:20:07.627Z,9.73
2018-07-07T12:22:37.239Z,8.53
2018-07-07T12:25:06.934Z,8.25
2018-07-07T12:27:37.573Z,8.35
2018-07-07T12:30:07.993Z,9.18
2018-07-07T12:32:38.105Z,7.62
2018-07-07T12:35:08.104Z,8.68
2018-07-07T12:37:38.453Z,9.05
2018-07-07T12:40:08.410Z,8.20
2018-07-07T12:42:39.646Z,8.50
2018-07-07T12:45:10.372Z,8.15
2018-07-07T12:47:40.972Z,7.70
2018-07-07T12:50:13.685Z,9.10
2018-07-07T12:52:44.410Z,7.92
2018-07-07T12:55:14.429Z,8.93
2018-07-07T12:57:44.527Z,7.67
2018-07-07T13:00:14.493Z,8.40
2018-07-07T13:02:44.405Z,8.33
2018-07-07T13:05:14.301Z,7.75
2018-07-07T13:07:44.185Z,8.35
2018-07-07T13:10:14.509Z,7.50
2018-07-07T13:12:44.385Z,7.47
2018-07-07T13:15:15.029Z,8.08
2018-07-07T13:17:46.619Z,8.03
2018-07-07T13:20:16.793Z,7.37
2018-07-07T13:22:47.785Z,8.05
2018-07-07T13:25:17.967Z,7.90
2018-07-07T13:27:47.708Z,7.10
2018-07-07T13:30:17.586Z,6.75
2018-07-07T13:32:47.617Z,6.35
2018-07-07T13:35:17.330Z,7.40
2018-07-07T13:37:48.096Z,6.08
2018-07-07T13:40:19.841Z,6.22
2018-07-07T13:42:51.433Z,6.00
2018-07-07T13:45:21.428Z,5.83
2018-07-07T13:47:52.713Z,5.93
2018-07-07T13:50:22.625Z,5.25
2018-07-07T13:52:52.514Z,5.72
2018-07-07T13:55:22.825Z,5.50
2018-07-07T13:57:53.136Z,5.80
2018-07-07T14:00:23.587Z,5.30
2018-07-07T14:02:52.974Z,4.95
2018-07-07T14:05:23.030Z,5.42
2018-07-07T14:07:52.828Z,6.70
2018-07-07T14:10:22.675Z,6.28
2018-07-07T14:12:52.406Z,6.15
2018-07-07T14:15:21.605Z,5.55
2018-07-07T14:17:51.828Z,5.07
2018-07-07T14:20:22.518Z,5.17
2018-07-07T14:22:52.644Z,4.67
2018-07-07T14:25:23.442Z,4.78
2018-07-07T14:27:53.894Z,4.85
2018-07-07T14:30:24.064Z,4.75
2018-07-07T14:32:54.379Z,4.87
2018-07-07T14:35:24.420Z,5.05
2018-07-07T14:37:54.594Z,4.97
2018-07-07T14:40:24.373Z,4.60
2018-07-07T14:42:55.549Z,4.67
2018-07-07T14:45:28.222Z,4.72
2018-07-07T14:47:59.682Z,5.37
2018-07-07T14:50:30.029Z,4.92
2018-07-07T14:53:00.592Z,5.22
2018-07-07T14:55:30.553Z,4.33
2018-07-07T14:58:00.474Z,4.37
2018-07-07T15:00:30.818Z,4.78
2018-07-07T15:03:00.901Z,4.72
2018-07-07T15:05:30.952Z,4.92
2018-07-07T15:08:00.666Z,4.50
2018-07-07T15:10:30.637Z,4.72
2018-07-07T15:13:00.547Z,4.30
2018-07-07T15:15:31.109Z,4.85
2018-07-07T15:18:00.981Z,4.25
2018-07-07T15:20:30.862Z,5.90
2018-07-07T15:23:00.857Z,5.30
2018-07-07T15:25:31.078Z,5.20
2018-07-07T15:28:01.305Z,4.80
2018-07-07T15:30:31.580Z,4.92
2018-07-07T15:33:01.434Z,5.65
2018-07-07T15:35:31.442Z,4.80
2018-07-07T15:38:01.930Z,5.30
2018-07-07T15:40:31.605Z,5.72
2018-07-07T15:43:01.367Z,5.75
2018-07-07T15:45:32.072Z,6.20
2018-07-07T15:48:02.233Z,5.80
2018-07-07T15:50:32.085Z,5.87
2018-07-07T15:53:02.602Z,6.12
2018-07-07T15:55:32.780Z,5.78
2018-07-07T15:58:02.886Z,5.60
2018-07-07T16:00:33.221Z,5.92
2018-07-07T16:03:03.195Z,6.30
2018-07-07T16:05:33.467Z,6.60
2018-07-07T16:08:07.962Z,6.47
2018-07-07T16:10:38.457Z,5.53
2018-07-07T16:13:08.329Z,6.12
2018-07-07T16:15:38.245Z,6.22
2018-07-07T16:18:07.852Z,5.60
2018-07-07T16:20:37.955Z,6.10
2018-07-07T16:23:08.301Z,6.55
2018-07-07T16:25:38.699Z,6.30
2018-07-07T16:28:08.416Z,6.65
2018-07-07T16:30:38.013Z,5.97
2018-07-07T16:33:08.555Z,6.20
2018-07-07T16:35:38.505Z,5.90
2018-07-07T16:38:08.638Z,5.95
2018-07-07T16:40:39.113Z,6.20
2018-07-07T16:43:09.025Z,6.10
2018-07-07T16:45:39.715Z,5.95
2018-07-07T16:48:22.535Z,6.20
2018-07-07T16:50:52.710Z,5.92
2018-07-07T16:53:22.709Z,7.03
2018-07-07T16:55:52.611Z,6.15
2018-07-07T16:58:22.429Z,6.78
2018-07-07T17:00:52.362Z,6.37
2018-07-07T17:03:28.736Z,6.25
2018-07-07T17:05:58.667Z,5.75
2018-07-07T17:08:28.553Z,5.80
2018-07-07T17:10:58.503Z,5.50
2018-07-07T17:13:29.109Z,6.05
2018-07-07T17:15:59.728Z,5.42
2018-07-07T17:18:29.779Z,5.62
2018-07-07T17:21:01.713Z,6.78
2018-07-07T17:23:32.355Z,7.40
2018-07-07T17:26:07.081Z,6.05
2018-07-07T17:28:39.253Z,6.47
2018-07-07T17:31:10.497Z,6.58
2018-07-07T17:33:43.480Z,6.72
2018-07-07T17:36:13.325Z,7.00
2018-07-07T17:38:44.241Z,7.60
2018-07-07T17:41:18.857Z,6.30
2018-07-07T17:43:50.846Z,7.03
2018-07-07T17:46:23.500Z,6.20
2018-07-07T17:49:05.408Z,6.30
2018-07-07T17:51:35.934Z,6.45
2018-07-07T17:54:05.615Z,5.30
2018-07-07T17:56:36.218Z,6.60
2018-07-07T17:59:06.231Z,5.78
2018-07-07T18:01:37.325Z,5.57
2018-07-07T18:04:07.681Z,4.85
2018-07-07T18:06:41.555Z,5.95
2018-07-07T18:09:12.224Z,7.55
2018-07-07T18:11:43.927Z,6.67
2018-07-07T18:14:14.069Z,5.72
2018-07-07T18:16:44.212Z,5.08
2018-07-07T18:19:14.098Z,8.48
2018-07-07T18:21:44.340Z,12.65
2018-07-07T18:24:14.256Z,12.40
2018-07-07T18:26:44.352Z,7.00
2018-07-07T18:29:14.402Z,4.95
2018-07-07T18:31:44.321Z,3.15
2018-07-07T18:34:14.404Z,5.55
2018-07-07T18:36:45.468Z,2.92
2018-07-07T18:39:15.473Z,2.80
2018-07-07T18:41:45.513Z,3.33
2018-07-07T18:44:15.189Z,2.65
2018-07-07T18:46:45.388Z,3.05
2018-07-07T18:49:15.263Z,2.20
2018-07-07T18:56:47.889Z,2.62
2018-07-07T18:59:18.452Z,2.60
2018-07-07T19:01:48.483Z,2.40
2018-07-07T19:04:20.949Z,2.33
2018-07-07T19:06:50.753Z,2.87
2018-07-07T19:09:20.793Z,2.70
2018-07-07T19:11:50.721Z,2.70
2018-07-07T19:14:20.260Z,2.67
2018-07-07T19:16:50.625Z,2.80
2018-07-07T19:19:21.004Z,2.90
2018-07-07T19:21:55.821Z,2.77
2018-07-07T19:24:30.796Z,2.75
2018-07-07T19:27:04.655Z,2.67
2018-07-07T19:29:34.642Z,2.93
2018-07-07T19:32:09.280Z,3.62
2018-07-07T19:34:44.247Z,2.50
2018-07-07T19:37:17.537Z,2.52
2018-07-07T19:39:47.722Z,2.17
2018-07-07T19:42:18.129Z,2.22
2018-07-07T19:44:48.150Z,2.75
2018-07-07T19:47:17.976Z,2.05
2018-07-07T19:49:48.366Z,2.40
2018-07-07T19:52:18.786Z,2.33
2018-07-07T19:54:48.844Z,2.70
2018-07-07T19:57:18.856Z,2.90
2018-07-07T19:59:50.151Z,3.45
2018-07-07T20:02:19.943Z,2.70
2018-07-07T20:04:50.892Z,3.00
2018-07-07T20:07:21.771Z,3.00
2018-07-07T20:09:52.612Z,2.92
2018-07-07T20:12:22.368Z,3.07
2018-07-07T20:14:52.301Z,2.97
2018-07-07T20:18:35.132Z,3.15
2018-07-07T20:21:20.986Z,2.65
2018-07-07T20:23:51.274Z,3.20
2018-07-07T20:26:21.654Z,2.98
2018-07-07T20:28:57.452Z,3.40
2018-07-07T20:31:27.325Z,4.30
2018-07-07T20:33:57.245Z,3.90
2018-07-07T20:36:26.794Z,3.07
2018-07-07T20:38:57.145Z,3.83
2018-07-07T20:41:27.005Z,3.70
2018-07-07T20:43:56.833Z,3.27
2018-07-07T20:46:26.346Z,3.53
2018-07-07T20:48:55.869Z,3.00
2018-07-07T20:51:25.733Z,2.90
2018-07-07T20:53:55.280Z,2.50
2018-07-07T20:56:25.358Z,2.13
2018-07-07T20:58:55.717Z,2.67
2018-07-07T21:01:25.364Z,2.40
2018-07-07T21:03:54.926Z,2.77
2018-07-07T21:06:25.345Z,2.53
2018-07-07T21:08:55.817Z,2.90
2018-07-07T21:11:27.346Z,3.00
2018-07-07T21:13:58.085Z,4.13
2018-07-07T21:16:28.514Z,3.97
2018-07-07T21:18:59.145Z,4.30
2018-07-07T21:21:29.589Z,4.28
2018-07-07T21:24:00.609Z,7.65
2018-07-07T21:26:31.013Z,14.83
2018-07-07T21:29:01.165Z,13.20
2018-07-07T21:31:30.837Z,6.92
2018-07-07T21:34:00.565Z,6.07
2018-07-07T21:36:30.278Z,4.83
2018-07-07T21:39:00.605Z,4.37
2018-07-07T21:41:30.309Z,4.10
2018-07-07T21:44:00.644Z,3.57
2018-07-07T21:46:30.995Z,3.70
2018-07-07T21:49:02.855Z,3.73
2018-07-07T21:51:33.133Z,3.20
2018-07-07T21:54:03.126Z,3.20
2018-07-07T21:56:34.193Z,3.40
2018-07-07T21:59:09.220Z,3.17
2018-07-07T22:01:54.204Z,3.40
2018-07-07T22:04:29.699Z,3.20
2018-07-07T22:07:04.614Z,3.60
2018-07-07T22:09:35.593Z,3.43
2018-07-07T22:12:05.777Z,3.60
2018-07-07T22:14:35.694Z,3.47
2018-07-07T22:17:05.700Z,3.47
2018-07-07T22:19:36.260Z,3.72
2018-07-07T22:22:08.025Z,3.70
2018-07-07T22:24:38.638Z,3.00
2018-07-07T22:27:10.182Z,3.10
2018-07-07T22:29:39.970Z,3.10
2018-07-07T22:32:15.304Z,3.00
2018-07-07T22:34:45.692Z,3.20
2018-07-07T22:37:16.330Z,3.13
2018-07-07T22:39:46.556Z,2.97
2018-07-07T22:42:17.924Z,3.30
2018-07-07T22:44:48.527Z,4.00
2018-07-07T22:47:18.479Z,3.53
2018-07-07T22:49:48.537Z,4.10
2018-07-07T22:52:18.217Z,3.87
2018-07-07T22:54:48.153Z,4.50
2018-07-07T22:57:17.834Z,3.77
2018-07-07T22:59:48.359Z,4.67
2018-07-07T23:02:18.149Z,4.27
2018-07-07T23:04:48.065Z,3.47
2018-07-07T23:07:18.226Z,3.67
2018-07-07T23:09:48.177Z,3.97
2018-07-07T23:12:18.745Z,4.33
2018-07-07T23:14:49.136Z,3.73
2018-07-07T23:17:19.009Z,4.10
2018-07-07T23:19:49.522Z,4.20
2018-07-07T23:22:31.294Z,3.97
2018-07-07T23:25:01.269Z,3.70
2018-07-07T23:27:30.500Z,5.10
2018-07-07T23:30:00.698Z,4.60
2018-07-07T23:32:31.093Z,4.07
2018-07-07T23:35:00.687Z,4.53
2018-07-07T23:37:29.966Z,4.43
2018-07-07T23:39:59.300Z,4.27
2018-07-07T23:42:29.199Z,4.27
2018-07-07T23:44:59.609Z,5.13
2018-07-07T23:47:29.177Z,5.13
2018-07-07T23:49:58.947Z,4.90
2018-07-07T23:52:27.920Z,4.80
2018-07-07T23:54:56.940Z,4.97
2018-07-07T23:57:26.845Z,4.70
2018-07-07T23:59:56.454Z,4.73
